Time;durP1;ratioP1;P1;durP2;ratioP2;P2;SDS_P1;SDS_P2;PMS_P1;PMS_P2;Temp;Humidity;BMP_temperature;BMP_pressure;BME280_temperature;BME280_humidity;BME280_pressure;Samples;Min_cycle;Max_cycle;Signal;HPM_P1;HPM_P2
2023/11/14 00:01:11;;;;;;;10.40;7.90;;;;;;;6.79;91.03;97336.69;227052;1265;22517;-83
2023/11/14 00:06:38;;;;;;;10.70;7.40;;;;;;;6.98;91.30;97334.70;226828;1275;22740;-84
2023/11/14 00:12:25;;;;;;;8.90;7.20;;;;;;;7.20;91.69;97342.58;226142;1279;22571;-83
2023/11/14 00:17:43;;;;;;;8.00;6.10;;;;;;;7.37;91.50;97338.02;226131;1269;22548;-85
2023/11/14 00:22:46;;;;;;;5.70;5.10;;;;;;;7.55;91.70;97353.52;226126;1279;24194;-84
2023/11/14 00:28:12;;;;;;;5.20;4.00;;;;;;;7.70;91.98;97374.40;226083;1271;22661;-81
2023/11/14 00:33:37;;;;;;;;;;;;;;;;;;;;;
2023/11/14 00:38:47;;;;;;;6.60;4.10;;;;;;;8.00;91.86;97500.31;226001;1279;23696;-79
2023/11/14 00:43:51;;;;;;;5.70;4.30;;;;;;;8.03;92.12;97523.36;226951;1274;22536;-81
2023/11/14 00:49:02;;;;;;;4.50;4.00;;;;;;;8.02;92.10;97507.55;227033;1269;22666;-81
2023/11/14 00:54:22;;;;;;;4.80;4.10;;;;;;;7.99;91.89;97503.89;226797;1265;26311;-82
2023/11/14 00:59:38;;;;;;;3.60;3.10;;;;;;;7.97;92.05;97438.98;227002;1274;23076;-81
2023/11/14 01:04:41;;;;;;;3.60;2.90;;;;;;;7.94;91.96;97426.27;226874;1269;22549;-82
2023/11/14 01:10:05;;;;;;;3.20;2.90;;;;;;;7.92;92.28;97388.81;226980;1274;22545;-82
2023/11/14 01:15:12;;;;;;;2.80;2.50;;;;;;;7.89;92.30;97357.34;227054;1275;22546;-83
2023/11/14 01:20:19;;;;;;;6.80;2.40;;;;;;;7.88;92.29;97360.38;226919;1274;22549;-82
2023/11/14 01:25:26;;;;;;;3.20;2.90;;;;;;;7.88;92.56;97356.89;226916;1275;22538;-82
2023/11/14 01:30:29;;;;;;;2.40;2.10;;;;;;;7.88;92.41;97380.55;227116;1269;22647;-81
2023/11/14 01:35:41;;;;;;;2.70;2.00;;;;;;;7.90;92.71;97393.10;227064;1275;22589;-82
2023/11/14 01:41:03;;;;;;;2.00;1.70;;;;;;;7.90;92.75;97404.06;226960;1275;23635;-81
2023/11/14 01:46:16;;;;;;;2.50;2.20;;;;;;;7.93;92.81;97422.67;226610;1274;197869;-81
2023/11/14 01:51:41;;;;;;;3.40;2.60;;;;;;;7.98;92.84;97422.89;226946;1269;25911;-82
2023/11/14 01:56:49;;;;;;;1.90;1.70;;;;;;;8.04;93.09;97446.77;227089;1272;22547;-82
2023/11/14 02:01:55;;;;;;;2.40;2.20;;;;;;;8.11;93.28;97417.39;226904;1274;23000;-82
2023/11/14 02:07:01;;;;;;;2.90;2.70;;;;;;;8.17;92.87;97406.27;226790;1275;22537;-82
2023/11/14 02:12:04;;;;;;;3.40;3.00;;;;;;;8.22;92.88;97404.65;226737;1274;22547;-82
2023/11/14 02:17:38;;;;;;;;;;;;;;;;;;;;;
2023/11/14 02:22:56;;;;;;;3.40;3.10;;;;;;;8.32;93.30;97410.35;226964;1275;22537;-83
2023/11/14 02:28:03;;;;;;;3.70;3.30;;;;;;;8.37;92.98;97408.33;227079;1273;22541;-82
2023/11/14 02:33:10;;;;;;;4.00;3.70;;;;;;;8.38;93.02;97399.77;226779;1274;22558;-82
2023/11/14 02:38:18;;;;;;;4.10;3.60;;;;;;;8.39;93.41;97411.44;226943;1275;22541;-82
2023/11/14 02:43:30;;;;;;;4.50;3.90;;;;;;;8.33;93.04;97413.91;226974;1275;22533;-83
2023/11/14 02:48:36;;;;;;;4.80;4.30;;;;;;;8.24;92.78;97420.42;227011;1275;22572;-83
2023/11/14 02:53:46;;;;;;;;;;;;;;;8.15;92.93;97430.73;227042;1275;22520;-82
2023/11/14 02:58:49;;;;;;;5.30;4.40;;;;;;;8.13;93.54;97416.42;226992;1273;22540;-84
2023/11/14 03:03:52;;;;;;;4.80;4.30;;;;;;;8.19;94.38;97420.08;227137;1271;24232;-82
2023/11/14 03:08:58;;;;;;;4.90;4.40;;;;;;;8.22;93.95;97430.52;226957;1274;22561;-82
2023/11/14 03:14:12;;;;;;;4.40;4.00;;;;;;;8.20;93.45;97432.61;226920;1275;22536;-83
2023/11/14 03:19:24;;;;;;;3.70;3.40;;;;;;;8.13;93.58;97455.02;226988;1274;22633;-82
2023/11/14 03:24:31;;;;;;;3.20;2.90;;;;;;;8.08;93.76;97457.78;226736;1274;22540;-83
2023/11/14 03:29:36;;;;;;;3.40;3.10;;;;;;;8.03;93.29;97470.89;226983;1275;23699;-82
2023/11/14 03:34:39;;;;;;;3.30;2.60;;;;;;;7.97;93.46;97472.08;226951;1274;25328;-82
2023/11/14 03:39:42;;;;;;;2.70;2.50;;;;;;;7.91;93.44;97477.29;226761;1275;22564;-82
2023/11/14 03:44:50;;;;;;;2.80;2.40;;;;;;;7.86;93.22;97486.40;226932;1275;22761;-82
2023/11/14 03:49:53;;;;;;;2.60;2.40;;;;;;;7.81;93.37;97490.20;226848;1274;22528;-82
2023/11/14 03:54:56;;;;;;;2.30;2.10;;;;;;;7.77;93.40;97499.79;226813;1274;24212;-82
2023/11/14 03:59:59;;;;;;;2.40;2.20;;;;;;;7.75;93.86;97501.88;226904;1275;22596;-82
2023/11/14 04:05:15;;;;;;;3.10;2.80;;;;;;;7.73;93.88;97504.34;226988;1272;22538;-82
2023/11/14 04:10:22;;;;;;;3.20;2.90;;;;;;;7.73;94.24;97509.02;226971;1275;22551;-82
2023/11/14 04:15:26;;;;;;;4.40;3.50;;;;;;;7.77;94.42;97510.10;226956;1273;22553;-81
2023/11/14 04:20:29;;;;;;;6.20;5.20;;;;;;;7.84;94.55;97521.20;226926;1275;22536;-82
2023/11/14 04:25:32;;;;;;;4.00;3.60;;;;;;;7.92;94.44;97534.66;226950;1275;22623;-82
2023/11/14 04:30:34;;;;;;;4.20;3.80;;;;;;;8.01;94.53;97538.23;227115;1275;23004;-81
2023/11/14 04:35:48;;;;;;;4.60;3.60;;;;;;;8.09;94.55;97547.17;226990;1275;23047;-79
2023/11/14 04:40:50;;;;;;;4.30;3.90;;;;;;;8.13;94.28;97558.15;227041;1275;25233;-81
2023/11/14 04:45:56;;;;;;;4.50;3.90;;;;;;;8.19;94.21;97570.45;226970;1275;24216;-81
2023/11/14 04:50:59;;;;;;;4.60;4.00;;;;;;;8.23;94.18;97578.09;226891;1273;22537;-81
2023/11/14 04:56:04;;;;;;;4.50;4.10;;;;;;;8.25;93.99;97583.92;227055;1272;22555;-81
2023/11/14 05:01:11;;;;;;;5.90;4.60;;;;;;;8.27;93.86;97596.36;226882;1268;22540;-82
2023/11/14 05:06:21;;;;;;;6.20;4.50;;;;;;;8.28;94.10;97602.35;227065;1275;22533;-81
2023/11/14 05:11:36;;;;;;;5.40;4.60;;;;;;;8.31;93.97;97613.81;226895;1273;22543;-81
2023/11/14 05:16:43;;;;;;;5.00;4.10;;;;;;;8.36;93.75;97627.27;227019;1275;22554;-81
2023/11/14 05:21:46;;;;;;;4.50;4.10;;;;;;;8.39;93.49;97630.64;226985;1272;22537;-81
2023/11/14 05:26:49;;;;;;;4.40;3.90;;;;;;;8.41;93.36;97634.48;226980;1275;22544;-81
2023/11/14 05:31:52;;;;;;;4.10;3.30;;;;;;;8.42;93.12;97642.76;227101;1272;22938;-82
2023/11/14 05:36:55;;;;;;;5.10;3.40;;;;;;;8.43;92.91;97635.98;227028;1275;22552;-82
2023/11/14 05:41:57;;;;;;;4.40;3.30;;;;;;;8.42;93.06;97643.77;227048;1275;22554;-80
2023/11/14 05:46:59;;;;;;;4.40;3.00;;;;;;;8.40;92.92;97647.97;226998;1272;22534;-82
2023/11/14 05:52:05;;;;;;;3.50;3.00;;;;;;;8.37;92.94;97658.33;227040;1269;22548;-81
2023/11/14 05:57:07;;;;;;;3.20;2.70;;;;;;;8.34;92.72;97665.89;227042;1262;22564;-81
2023/11/14 06:02:10;;;;;;;3.80;3.10;;;;;;;8.31;92.71;97663.65;226967;1272;22551;-81
2023/11/14 06:07:33;;;;;;;2.90;2.60;;;;;;;8.28;92.90;97663.19;226915;1275;22541;-82
2023/11/14 06:12:39;;;;;;;3.00;2.70;;;;;;;8.23;92.49;97669.61;226937;1272;22554;-83
2023/11/14 06:17:45;;;;;;;3.00;2.70;;;;;;;8.19;92.67;97675.27;227079;1272;22567;-83
2023/11/14 06:22:52;;;;;;;4.80;2.80;;;;;;;8.16;92.70;97684.79;227058;1274;22528;-83
2023/11/14 06:27:56;;;;;;;3.30;2.50;;;;;;;8.14;92.62;97701.10;226923;1274;22544;-82
2023/11/14 06:32:59;;;;;;;3.60;2.00;;;;;;;8.17;92.39;97712.35;227039;1270;22813;-82
2023/11/14 06:38:02;;;;;;;5.60;2.30;;;;;;;8.22;92.14;97722.52;226910;1274;22534;-83
2023/11/14 06:43:04;;;;;;;2.20;2.00;;;;;;;8.30;92.13;97727.00;226879;1273;22548;-81
2023/11/14 06:48:07;;;;;;;2.30;2.10;;;;;;;8.37;92.33;97732.26;226965;1272;22530;-82
2023/11/14 06:53:10;;;;;;;3.70;2.50;;;;;;;8.45;92.19;97743.13;226713;1269;22548;-80
2023/11/14 06:58:12;;;;;;;11.10;7.60;;;;;;;8.51;92.16;97740.70;226612;1272;24740;-81
2023/11/14 07:03:15;;;;;;;5.50;4.00;;;;;;;8.58;91.98;97743.08;226393;1261;22556;-79
2023/11/14 07:08:17;;;;;;;6.60;3.10;;;;;;;8.63;91.71;97748.23;226619;1269;22542;-81
2023/11/14 07:13:25;;;;;;;5.70;3.00;;;;;;;8.68;91.48;97748.14;226536;1272;23018;-82
2023/11/14 07:18:27;;;;;;;7.40;2.90;;;;;;;8.73;91.34;97751.40;226374;1257;22600;-82
2023/11/14 07:23:31;;;;;;;4.70;2.90;;;;;;;8.78;91.11;97742.27;226539;1260;22540;-80
2023/11/14 07:28:37;;;;;;;5.40;2.70;;;;;;;8.82;90.94;97730.41;226400;1263;22610;-81
2023/11/14 07:33:55;;;;;;;4.30;2.40;;;;;;;8.88;90.55;97733.98;226530;1260;22572;-82
2023/11/14 07:38:58;;;;;;;4.00;2.50;;;;;;;8.94;90.12;97741.95;226533;1267;22554;-82
2023/11/14 07:44:03;;;;;;;6.30;3.30;;;;;;;8.99;90.01;97753.46;226396;1263;22626;-81
2023/11/14 07:49:11;;;;;;;8.40;3.10;;;;;;;9.05;89.63;97754.42;226351;1269;25502;-81
2023/11/14 07:54:16;;;;;;;4.90;2.90;;;;;;;9.12;89.55;97753.34;226465;1269;22527;-80
2023/11/14 07:59:21;;;;;;;5.50;2.70;;;;;;;9.21;89.36;97744.97;226259;1254;24630;-82
2023/11/14 08:04:31;;;;;;;6.80;2.90;;;;;;;9.30;88.79;97742.61;226208;1264;22568;-81
2023/11/14 08:09:45;;;;;;;6.50;3.70;;;;;;;9.39;88.55;97748.42;226170;1259;23058;-81
2023/11/14 08:14:52;;;;;;;5.10;2.70;;;;;;;9.41;88.33;97749.04;226017;1263;22527;-79
2023/11/14 08:19:55;;;;;;;5.70;2.70;;;;;;;9.45;88.29;97753.70;225704;1251;24365;-78
2023/11/14 08:24:58;;;;;;;6.50;3.30;;;;;;;9.57;88.14;97753.05;225627;1252;22565;-78
2023/11/14 08:30:06;;;;;;;9.20;3.50;;;;;;;9.65;87.51;97750.19;226100;1261;22544;-79
2023/11/14 08:35:09;;;;;;;5.80;3.10;;;;;;;9.71;87.39;97758.41;226151;1257;23069;-79
2023/11/14 08:40:13;;;;;;;5.60;3.00;;;;;;;9.76;87.07;97754.55;226293;1272;22561;-78
2023/11/14 08:45:19;;;;;;;6.90;2.80;;;;;;;9.82;86.73;97757.23;226216;1260;22580;-78
2023/11/14 08:50:35;;;;;;;5.70;2.50;;;;;;;9.86;86.26;97747.90;226160;1260;22635;-78
2023/11/14 08:55:59;;;;;;;;;;;;;;;;;;;;;
2023/11/14 09:01:37;;;;;;;7.70;2.70;;;;;;;9.87;85.96;97768.36;226171;1273;22566;-80
2023/11/14 09:06:58;;;;;;;5.40;2.20;;;;;;;9.90;85.57;97781.27;226248;1267;22551;-79
2023/11/14 09:12:04;;;;;;;4.90;2.40;;;;;;;9.89;85.13;97788.23;225885;1254;22636;-79
2023/11/14 09:17:13;;;;;;;6.30;2.50;;;;;;;9.95;84.99;97798.20;226048;1267;22537;-79
2023/11/14 09:22:24;;;;;;;7.50;2.60;;;;;;;10.07;84.66;97797.55;226228;1274;22562;-79
2023/11/14 09:27:33;;;;;;;6.50;1.90;;;;;;;10.19;84.34;97802.08;226206;1260;23005;-76
2023/11/14 09:32:58;;;;;;;6.40;1.90;;;;;;;10.31;83.83;97809.91;226173;1270;22546;-79
2023/11/14 09:38:10;;;;;;;7.00;1.60;;;;;;;10.40;82.90;97805.81;225079;1277;22857;-79
2023/11/14 09:43:13;;;;;;;5.70;2.00;;;;;;;10.45;82.19;97816.19;225085;1275;22546;-81
2023/11/14 09:48:15;;;;;;;6.20;2.00;;;;;;;10.44;81.73;97798.23;224840;1264;22684;-78
2023/11/14 09:53:24;;;;;;;4.60;1.70;;;;;;;10.41;82.01;97803.11;224722;1261;22983;-77
2023/11/14 09:58:26;;;;;;;6.40;2.40;;;;;;;10.46;81.95;97802.16;224609;1273;23152;-78
2023/11/14 10:03:31;;;;;;;8.60;1.90;;;;;;;10.64;81.99;97801.57;224455;1273;23053;-79
2023/11/14 10:08:36;;;;;;;5.30;1.90;;;;;;;10.92;81.92;97793.17;225970;1274;22547;-80
2023/11/14 10:14:02;;;;;;;5.00;1.70;;;;;;;11.18;81.20;97774.96;225816;1267;22564;-77
2023/11/14 10:19:14;;;;;;;3.70;1.60;;;;;;;11.22;80.19;97769.48;226472;1251;23449;-78
2023/11/14 10:24:18;;;;;;;4.40;1.50;;;;;;;11.11;79.29;97772.25;226424;1273;22550;-77
2023/11/14 10:29:22;;;;;;;5.80;2.00;;;;;;;10.99;79.63;97760.94;226301;1260;22586;-78
2023/11/14 10:34:28;;;;;;;6.20;1.40;;;;;;;11.04;79.77;97765.64;226144;1272;22528;-76
2023/11/14 10:39:30;;;;;;;3.60;1.60;;;;;;;11.15;79.46;97769.66;225958;1273;25577;-77
2023/11/14 10:44:32;;;;;;;3.60;1.30;;;;;;;11.21;79.04;97792.42;225923;1267;23023;-76
2023/11/14 10:49:45;;;;;;;3.60;1.30;;;;;;;11.24;78.33;97801.84;226009;1271;23437;-78
2023/11/14 10:54:48;;;;;;;4.90;1.40;;;;;;;11.23;78.68;97786.20;226006;1271;22639;-79
2023/11/14 10:59:51;;;;;;;7.00;1.50;;;;;;;11.23;78.58;97789.73;226065;1272;22552;-79
2023/11/14 11:04:56;;;;;;;5.50;2.00;;;;;;;11.26;78.09;97797.59;226135;1267;24209;-80
2023/11/14 11:09:59;;;;;;;8.10;2.00;;;;;;;11.31;77.61;97775.16;225919;1260;22957;-77
2023/11/14 11:15:05;;;;;;;7.30;2.30;;;;;;;11.34;77.26;97771.13;226136;1260;22540;-79
2023/11/14 11:20:10;;;;;;;6.20;2.00;;;;;;;11.40;77.52;97770.27;226708;1267;22687;-80
2023/11/14 11:25:26;;;;;;;6.60;1.70;;;;;;;11.46;77.06;97778.54;225738;1267;22540;-78
2023/11/14 11:30:29;;;;;;;6.30;1.80;;;;;;;11.43;76.43;97786.65;225744;1266;22571;-79
2023/11/14 11:35:34;;;;;;;6.30;1.60;;;;;;;11.43;76.61;97777.34;225757;1267;22554;-78
2023/11/14 11:41:05;;;;;;;5.60;1.60;;;;;;;11.48;76.46;97783.20;225776;1251;22552;-74
2023/11/14 11:46:48;;;;;;;9.30;2.00;;;;;;;11.49;76.10;97775.78;226053;1269;22936;-81
2023/11/14 11:52:08;;;;;;;12.80;2.50;;;;;;;11.60;76.55;97762.31;225984;1269;22562;-78
2023/11/14 11:57:11;;;;;;;7.50;2.20;;;;;;;11.78;76.24;97755.23;226204;1267;22554;-79
2023/11/14 12:02:17;;;;;;;7.80;2.00;;;;;;;11.94;75.58;97767.97;226285;1263;23023;-80
2023/11/14 12:07:20;;;;;;;5.60;1.70;;;;;;;11.89;74.97;97769.65;226180;1251;22558;-79
2023/11/14 12:12:23;;;;;;;7.20;1.60;;;;;;;11.81;74.28;97763.16;226211;1254;22591;-80
2023/11/14 12:17:26;;;;;;;7.10;2.00;;;;;;;11.70;74.10;97766.41;225917;1259;22632;-80
2023/11/14 12:22:31;;;;;;;6.00;1.80;;;;;;;11.62;74.33;97758.52;226221;1260;24226;-81
2023/11/14 12:27:34;;;;;;;6.20;1.60;;;;;;;11.58;74.26;97775.94;226138;1256;22666;-79
2023/11/14 12:32:39;;;;;;;7.50;2.10;;;;;;;11.55;73.84;97779.23;226214;1253;23070;-79
2023/11/14 12:37:48;;;;;;;7.50;1.60;;;;;;;11.51;73.61;97764.79;226080;1267;22650;-80
2023/11/14 12:42:50;;;;;;;6.50;2.00;;;;;;;11.46;73.84;97768.92;225974;1267;22533;-80
2023/11/14 12:47:56;;;;;;;3.00;1.50;;;;;;;11.42;74.05;97753.39;226050;1266;22548;-80
2023/11/14 12:53:10;;;;;;;7.20;1.60;;;;;;;11.37;73.60;97754.63;226016;1272;23012;-80
2023/11/14 12:58:17;;;;;;;5.60;1.70;;;;;;;11.30;73.70;97764.52;226153;1269;23424;-80
2023/11/14 13:03:20;;;;;;;7.00;1.90;;;;;;;11.27;74.06;97780.71;226172;1271;22545;-81
2023/11/14 13:08:23;;;;;;;7.10;2.60;;;;;;;11.24;74.35;97778.98;226271;1267;22570;-81
2023/11/14 13:13:25;;;;;;;6.60;2.30;;;;;;;11.19;74.29;97787.23;226112;1269;25443;-80
2023/11/14 13:18:28;;;;;;;6.40;1.80;;;;;;;11.15;74.50;97790.15;225944;1272;22594;-78
2023/11/14 13:23:32;;;;;;;3.90;1.80;;;;;;;11.12;74.46;97790.08;226054;1256;22550;-77
2023/11/14 13:28:36;;;;;;;7.20;2.00;;;;;;;11.10;74.49;97782.97;225926;1267;22542;-76
2023/11/14 13:33:38;;;;;;;9.20;2.20;;;;;;;11.09;74.68;97769.60;225708;1261;25458;-77
2023/11/14 13:38:44;;;;;;;6.40;2.20;;;;;;;11.07;74.68;97760.98;225575;1265;22550;-75
2023/11/14 13:43:49;;;;;;;7.90;2.10;;;;;;;11.07;74.64;97760.95;226661;1256;25233;-76
2023/11/14 13:48:53;;;;;;;7.50;2.20;;;;;;;11.05;74.54;97764.14;225675;1257;153420;-76
2023/11/14 13:53:56;;;;;;;6.80;2.60;;;;;;;11.01;74.45;97753.59;225820;1256;22551;-76
2023/11/14 13:59:00;;;;;;;10.00;2.50;;;;;;;11.00;74.35;97741.80;225777;1256;22998;-77
2023/11/14 14:04:07;;;;;;;7.80;2.50;;;;;;;10.98;74.35;97742.20;225959;1269;22770;-77
2023/11/14 14:09:13;;;;;;;6.10;2.80;;;;;;;10.96;74.37;97745.27;225939;1273;22557;-77
2023/11/14 14:40:45;;;;;;;8.50;2.80;;;;;;;10.86;73.79;97729.59;179645;1283;22839;31
2023/11/14 15:49:58;;;;;;;12.90;4.50;;;;;;;10.70;74.00;97754.95;204931;1282;952913;-79
2023/11/14 15:55:04;;;;;;;13.10;4.60;;;;;;;10.69;73.99;97748.17;221750;1292;22605;-79
2023/11/14 16:00:10;;;;;;;15.00;4.70;;;;;;;10.66;73.94;97740.86;221829;1303;22594;-79
2023/11/14 16:05:12;;;;;;;8.90;3.50;;;;;;;10.64;73.87;97744.41;221485;1303;22602;-79
2023/11/14 16:10:14;;;;;;;11.50;4.50;;;;;;;10.62;73.78;97752.58;221496;1303;22579;-79
2023/11/14 16:15:17;;;;;;;12.80;4.80;;;;;;;10.58;74.08;97750.89;221861;1288;25252;-81
2023/11/14 16:20:20;;;;;;;10.70;4.30;;;;;;;10.57;74.11;97741.34;221685;1303;22580;-80
2023/11/14 16:25:22;;;;;;;10.80;5.00;;;;;;;10.59;73.48;97730.41;221496;1301;22675;-80
2023/11/14 16:30:24;;;;;;;16.40;5.30;;;;;;;10.59;73.85;97725.41;221486;1302;22660;-79
2023/11/14 16:35:28;;;;;;;16.80;5.30;;;;;;;10.59;73.81;97715.16;221786;1303;22628;-80
2023/11/14 16:40:31;;;;;;;11.50;4.60;;;;;;;10.58;73.66;97720.61;221424;1303;22575;-79
2023/11/14 16:45:33;;;;;;;10.40;4.30;;;;;;;10.58;73.74;97723.66;221670;1303;22733;-79
2023/11/14 16:50:36;;;;;;;9.90;3.80;;;;;;;10.57;73.63;97722.21;221435;1303;22589;-80
2023/11/14 16:55:39;;;;;;;11.90;4.80;;;;;;;10.54;73.62;97712.08;221381;1303;24304;-81
2023/11/14 17:00:42;;;;;;;13.80;5.00;;;;;;;10.45;73.69;97712.27;221226;1303;22650;-80
2023/11/14 17:05:44;;;;;;;12.70;4.80;;;;;;;10.37;73.95;97712.41;221822;1295;22610;-80
2023/11/14 17:10:46;;;;;;;12.90;5.20;;;;;;;10.32;74.43;97723.52;221449;1303;22597;-80
2023/11/14 17:15:49;;;;;;;15.20;4.80;;;;;;;10.29;74.50;97725.96;221492;1303;23361;-81
2023/11/14 17:20:51;;;;;;;11.70;4.70;;;;;;;10.29;74.67;97723.73;221504;1302;22623;-80
2023/11/14 17:25:54;;;;;;;9.90;4.30;;;;;;;10.30;74.93;97727.30;221694;1302;22583;-80
2023/11/14 17:30:57;;;;;;;15.90;5.20;;;;;;;10.31;74.77;97732.37;221686;1296;22575;-80
2023/11/14 17:35:59;;;;;;;12.40;4.60;;;;;;;10.31;74.92;97729.70;221560;1301;22579;-80
2023/11/14 17:41:03;;;;;;;11.10;3.40;;;;;;;10.31;75.01;97728.20;221781;1301;24241;-81
2023/11/14 17:46:06;;;;;;;11.20;4.10;;;;;;;10.32;75.16;97720.42;221762;1279;22701;-79
2023/11/14 17:51:08;;;;;;;9.40;4.00;;;;;;;10.35;75.36;97706.36;221494;1303;22576;-81
2023/11/14 17:56:16;;;;;;;12.00;3.70;;;;;;;10.38;74.75;97703.26;221645;1301;22576;-80
2023/11/14 18:01:18;;;;;;;13.30;4.90;;;;;;;10.39;74.80;97700.33;221712;1301;22616;-80
2023/11/14 18:06:21;;;;;;;11.60;3.80;;;;;;;10.34;75.10;97700.80;221424;1291;22695;-80
2023/11/14 18:11:25;;;;;;;12.60;4.50;;;;;;;10.28;75.09;97694.13;221474;1303;22578;-81
2023/11/14 18:16:28;;;;;;;11.10;4.10;;;;;;;10.22;75.02;97695.06;221632;1303;22602;-81
2023/11/14 18:21:31;;;;;;;11.70;4.40;;;;;;;10.18;75.16;97697.14;221498;1303;22578;-81
2023/11/14 18:26:33;;;;;;;12.70;4.50;;;;;;;10.11;75.46;97698.66;221596;1301;22576;-79
2023/11/14 18:31:35;;;;;;;10.00;4.30;;;;;;;10.04;75.65;97695.19;221792;1298;22598;-80
2023/11/14 18:36:38;;;;;;;9.10;4.00;;;;;;;10.00;75.68;97686.51;221389;1282;23797;-80
2023/11/14 18:41:40;;;;;;;12.40;4.90;;;;;;;10.00;75.89;97675.30;221488;1298;22585;-79
2023/11/14 18:46:42;;;;;;;12.40;4.50;;;;;;;10.00;76.01;97678.41;221519;1303;25951;-80
2023/11/14 18:51:44;;;;;;;10.50;4.10;;;;;;;10.00;75.86;97663.16;221572;1301;23036;-80
2023/11/14 18:56:46;;;;;;;10.60;3.60;;;;;;;9.99;75.84;97656.95;221522;1286;22612;-80
2023/11/14 19:01:50;;;;;;;9.60;3.60;;;;;;;9.97;76.26;97657.00;221735;1303;23007;-79
2023/11/14 19:06:54;;;;;;;13.40;4.10;;;;;;;9.91;75.99;97659.73;221733;1301;22562;-80
2023/11/14 19:11:57;;;;;;;8.20;3.90;;;;;;;9.86;76.03;97667.83;221845;1302;22582;-81
2023/11/14 19:17:00;;;;;;;10.60;3.50;;;;;;;9.83;76.42;97668.84;221702;1303;22599;-80
2023/11/14 19:22:03;;;;;;;13.30;3.90;;;;;;;9.81;76.55;97652.29;221769;1301;22691;-80
2023/11/14 19:27:26;;;;;;;9.30;3.90;;;;;;;9.83;76.83;97647.66;221769;1302;22572;-80
2023/11/14 19:32:29;;;;;;;10.90;3.80;;;;;;;9.83;76.38;97640.36;221492;1303;22581;-79
2023/11/14 19:37:31;;;;;;;10.70;3.80;;;;;;;9.84;76.55;97628.95;221470;1301;22593;-81
2023/11/14 19:42:34;;;;;;;10.80;4.10;;;;;;;9.86;76.94;97637.38;221724;1291;22598;-79
2023/11/14 19:47:36;;;;;;;8.40;3.60;;;;;;;9.89;76.78;97639.08;221503;1297;22583;-80
2023/11/14 19:52:39;;;;;;;8.50;3.20;;;;;;;9.94;76.43;97645.38;221566;1301;23178;-81
2023/11/14 19:57:42;;;;;;;9.00;3.30;;;;;;;10.02;76.34;97648.66;221509;1297;22583;-82
2023/11/14 20:02:44;;;;;;;7.00;3.40;;;;;;;10.08;76.71;97643.39;221839;1302;22590;-80
2023/11/14 20:07:47;;;;;;;9.80;3.70;;;;;;;10.13;76.59;97633.44;221581;1297;22589;-80
2023/11/14 20:12:50;;;;;;;6.00;3.30;;;;;;;10.20;76.03;97623.20;221421;1303;22586;-80
2023/11/14 20:17:52;;;;;;;9.80;3.60;;;;;;;10.24;75.73;97611.46;221756;1303;22636;-81
2023/11/14 20:22:56;;;;;;;9.80;3.00;;;;;;;10.28;75.56;97616.14;221521;1301;22590;-81
2023/11/14 20:27:58;;;;;;;14.00;4.10;;;;;;;10.31;75.54;97615.40;221767;1295;22559;-81
2023/11/14 20:33:00;;;;;;;9.90;4.00;;;;;;;10.32;75.47;97614.38;221534;1301;23080;-81
2023/11/14 20:38:03;;;;;;;10.10;4.00;;;;;;;10.35;75.39;97612.58;221323;1303;24277;-82
2023/11/14 20:43:10;;;;;;;11.40;4.30;;;;;;;10.34;75.53;97611.81;221560;1303;24992;-81
2023/11/14 20:48:17;;;;;;;10.70;3.90;;;;;;;10.32;75.30;97603.62;221681;1303;23135;-80
2023/11/14 20:53:22;;;;;;;9.90;4.20;;;;;;;10.30;75.38;97602.13;221660;1285;22586;-79
2023/11/14 20:58:26;;;;;;;8.10;3.40;;;;;;;10.27;75.53;97603.23;221619;1303;22575;-80
2023/11/14 21:03:29;;;;;;;10.70;3.80;;;;;;;10.20;75.64;97593.48;221732;1301;22860;-80
2023/11/14 21:08:31;;;;;;;12.10;4.00;;;;;;;10.10;75.81;97578.33;221647;1301;22614;-79
2023/11/14 21:13:33;;;;;;;10.80;3.80;;;;;;;10.00;75.88;97580.95;221617;1303;22579;-82
2023/11/14 21:18:35;;;;;;;9.90;3.80;;;;;;;9.92;76.37;97585.49;221640;1294;22611;-80
2023/11/14 21:23:37;;;;;;;9.00;3.50;;;;;;;9.86;76.49;97587.58;221441;1297;22571;-80
2023/11/14 21:28:42;;;;;;;12.00;3.90;;;;;;;9.82;76.74;97583.25;221556;1303;25918;-80
2023/11/14 21:33:48;;;;;;;10.60;4.40;;;;;;;9.77;77.17;97576.45;221785;1303;25352;-82
2023/11/14 21:38:50;;;;;;;11.40;3.90;;;;;;;9.73;77.11;97568.14;221503;1301;24463;-80
2023/11/14 21:43:54;;;;;;;8.50;3.70;;;;;;;9.73;77.61;97560.96;221377;1300;24250;-80
2023/11/14 21:48:56;;;;;;;7.60;3.30;;;;;;;9.74;77.71;97561.81;221555;1297;22581;-80
2023/11/14 21:53:58;;;;;;;8.20;3.30;;;;;;;9.77;77.76;97552.83;221563;1303;22589;-80
2023/11/14 21:59:04;;;;;;;9.70;3.60;;;;;;;9.81;77.93;97548.13;221539;1298;22583;-80
2023/11/14 22:04:06;;;;;;;8.60;3.50;;;;;;;9.86;77.87;97544.40;221650;1301;23041;-80
2023/11/14 22:09:08;;;;;;;8.30;2.70;;;;;;;9.89;77.82;97542.23;221604;1301;22594;-79
2023/11/14 22:14:10;;;;;;;8.00;2.60;;;;;;;9.93;78.08;97544.37;221692;1301;24289;-80
2023/11/14 22:19:12;;;;;;;6.60;2.90;;;;;;;9.96;77.86;97539.81;221525;1303;22558;-81
2023/11/14 22:24:14;;;;;;;6.20;3.00;;;;;;;9.99;77.32;97535.66;221480;1294;22582;-79
2023/11/14 22:29:16;;;;;;;7.70;2.70;;;;;;;10.02;77.94;97539.63;221709;1291;22574;-81
2023/11/14 22:34:18;;;;;;;5.50;2.50;;;;;;;10.01;78.10;97541.77;221691;1296;22611;-81
2023/11/14 22:39:21;;;;;;;4.60;2.10;;;;;;;9.99;77.71;97538.86;221457;1301;22572;-81
2023/11/14 22:44:22;;;;;;;6.80;2.30;;;;;;;9.96;78.33;97541.04;221635;1301;22640;-82
2023/11/14 22:49:26;;;;;;;4.60;2.50;;;;;;;9.89;78.66;97537.70;221609;1302;22598;-81
2023/11/14 22:54:28;;;;;;;5.60;2.40;;;;;;;9.80;79.43;97540.83;221602;1302;22608;-81
2023/11/14 22:59:30;;;;;;;6.10;2.30;;;;;;;9.70;79.89;97541.17;221707;1303;22580;-82
2023/11/14 23:04:34;;;;;;;6.20;2.50;;;;;;;9.57;80.20;97535.21;221810;1303;22718;-81
2023/11/14 23:09:37;;;;;;;5.60;2.50;;;;;;;9.44;80.66;97525.77;221395;1303;22583;-82
2023/11/14 23:14:40;;;;;;;5.40;2.60;;;;;;;9.33;81.23;97521.89;221556;1303;22733;-83
2023/11/14 23:19:43;;;;;;;5.70;2.30;;;;;;;9.25;81.56;97519.20;221790;1298;22633;-83
2023/11/14 23:24:46;;;;;;;4.90;2.60;;;;;;;9.19;81.64;97514.00;221775;1291;22576;-83
2023/11/14 23:29:49;;;;;;;6.80;2.80;;;;;;;9.14;81.85;97508.40;221424;1303;22613;-83
2023/11/14 23:34:53;;;;;;;8.40;2.80;;;;;;;9.08;82.53;97504.40;221706;1302;25348;-85
2023/11/14 23:39:55;;;;;;;5.30;2.60;;;;;;;9.03;82.83;97501.00;221783;1303;22558;-84
2023/11/14 23:44:59;;;;;;;6.40;2.60;;;;;;;8.99;83.04;97494.81;221571;1303;22607;-84
2023/11/14 23:50:01;;;;;;;7.30;3.00;;;;;;;8.95;83.84;97495.55;221869;1301;22588;-84
2023/11/14 23:55:04;;;;;;;6.20;2.40;;;;;;;8.92;83.30;97490.85;221403;1303;22586;-83
